Decoded Metar for KEGV (EAGLE RIVER in WI, USA) (IATA:EGV) | Meteo·Mobile Aviation Weather
aviador You're here:

KEGV Decoded Metar

EAGLE RIVER in WI, USA
Report Time2018-09-25 14:35:00
UTC Time2018-09-25 14:38:42
Flight Rules mvfr MVFR
Wind020° at 05 kt
W.Decomp.*RWY 04: 4.8 kt HW 1.5 kt LCW
RWY 31: 1.5 kt HW 4.8 kt RCW
W.Rank020° ranks 24
Current wind is below 020° avg. (6.9)
Visibility8047 m
Phenomena:Mist
Clouds:Scattered 007 Hf
Broken 010 Hf
Overcast 024 Hf
Expected CloudBase > 400 ft AGL from Temp-Dew spread
Ceiling1,000 ft
Temp14°C (ISA +2)
Dew Point13°C (94% RH)
AAT13.1°C
QNH1011 hPa
Density Alt2,182 ft
Elevation1,640 ft
Report Wrong Elevation
Raw Report
METAR KEGV 251435Z AUTO 02005KT 5SM BR SCT007 BKN010 OVC024 14/13 A2985
RMK AO2 P0001 T01350130=

Extra information for KEGV:More info

Metar Taf Metar & Taf Last 4 Metars F.Rules Stats Wind Profile Meteogram Temp Stats Airport Information Weather charts Add Link Nearby VenuesMetar ALERT Operation Metar Decoded Social comments

AIRNAV info for KEGV